sensor_id;sensor_type;location;lat;lon;timestamp;pressure;altitude;pressure_sealevel;temperature;humidity
61408;BME280;47274;43.054;25.146;2023-05-01T00:00:54;95499.03;;;9.77;93.29
61408;BME280;47274;43.054;25.146;2023-05-01T00:03:20;95458.16;;;9.57;92.99
61408;BME280;47274;43.054;25.146;2023-05-01T00:05:46;95448.50;;;9.41;93.96
61408;BME280;47274;43.054;25.146;2023-05-01T00:08:12;95475.09;;;9.68;93.17
61408;BME280;47274;43.054;25.146;2023-05-01T00:10:38;95472.59;;;9.48;94.03
61408;BME280;47274;43.054;25.146;2023-05-01T00:13:04;95488.59;;;9.60;94.70
61408;BME280;47274;43.054;25.146;2023-05-01T00:15:31;95468.69;;;9.54;92.89
61408;BME280;47274;43.054;25.146;2023-05-01T00:17:57;95487.94;;;9.58;95.36
61408;BME280;47274;43.054;25.146;2023-05-01T00:20:29;95492.53;;;9.55;95.41
61408;BME280;47274;43.054;25.146;2023-05-01T00:22:55;95483.13;;;9.45;96.25
61408;BME280;47274;43.054;25.146;2023-05-01T00:25:22;95464.16;;;9.29;95.44
61408;BME280;47274;43.054;25.146;2023-05-01T00:27:48;95441.94;;;9.29;94.92
61408;BME280;47274;43.054;25.146;2023-05-01T00:30:13;95468.19;;;9.41;93.12
61408;BME280;47274;43.054;25.146;2023-05-01T00:32:39;95463.88;;;9.41;93.61
61408;BME280;47274;43.054;25.146;2023-05-01T00:35:06;95493.47;;;9.54;93.24
61408;BME280;47274;43.054;25.146;2023-05-01T00:37:32;95464.34;;;9.55;89.84
61408;BME280;47274;43.054;25.146;2023-05-01T00:39:58;95483.53;;;9.78;88.05
61408;BME280;47274;43.054;25.146;2023-05-01T00:42:23;95462.88;;;9.80;86.08
61408;BME280;47274;43.054;25.146;2023-05-01T00:44:49;95474.41;;;9.93;85.76
61408;BME280;47274;43.054;25.146;2023-05-01T00:47:15;95493.19;;;10.12;84.83
61408;BME280;47274;43.054;25.146;2023-05-01T00:49:42;95471.56;;;9.96;85.13
61408;BME280;47274;43.054;25.146;2023-05-01T00:52:09;95476.63;;;9.88;86.12
61408;BME280;47274;43.054;25.146;2023-05-01T00:54:35;95501.25;;;9.99;86.38
61408;BME280;47274;43.054;25.146;2023-05-01T00:57:02;95509.97;;;10.06;85.91
61408;BME280;47274;43.054;25.146;2023-05-01T00:59:27;95505.28;;;10.02;85.65
61408;BME280;47274;43.054;25.146;2023-05-01T01:01:53;95501.25;;;9.99;85.46
61408;BME280;47274;43.054;25.146;2023-05-01T01:04:20;95519.94;;;10.09;85.07
61408;BME280;47274;43.054;25.146;2023-05-01T01:13:07;95502.47;;;9.95;85.74
61408;BME280;47274;43.054;25.146;2023-05-01T01:15:39;95527.91;;;10.06;85.42
61408;BME280;47274;43.054;25.146;2023-05-01T01:26:31;95523.09;;;9.66;88.59
61408;BME280;47274;43.054;25.146;2023-05-01T01:29:36;95543.16;;;9.70;90.25
61408;BME280;47274;43.054;25.146;2023-05-01T01:35:14;95541.59;;;9.50;92.24
61408;BME280;47274;43.054;25.146;2023-05-01T01:38:04;95540.16;;;9.38;92.70
61408;BME280;47274;43.054;25.146;2023-05-01T01:40:36;95547.69;;;9.39;93.12
61408;BME280;47274;43.054;25.146;2023-05-01T01:43:07;95524.66;;;9.30;92.34
61408;BME280;47274;43.054;25.146;2023-05-01T01:45:42;95524.91;;;9.46;91.34
61408;BME280;47274;43.054;25.146;2023-05-01T01:48:24;95541.06;;;9.56;90.72
61408;BME280;47274;43.054;25.146;2023-05-01T01:50:51;95504.06;;;9.31;90.06
61408;BME280;47274;43.054;25.146;2023-05-01T01:53:19;95524.38;;;9.42;91.04
61408;BME280;47274;43.054;25.146;2023-05-01T01:55:47;95500.56;;;9.22;92.14
61408;BME280;47274;43.054;25.146;2023-05-01T01:58:15;95524.41;;;9.33;91.79
61408;BME280;47274;43.054;25.146;2023-05-01T02:00:44;95535.56;;;9.41;90.45
61408;BME280;47274;43.054;25.146;2023-05-01T02:03:12;95521.31;;;9.29;90.81
61408;BME280;47274;43.054;25.146;2023-05-01T02:05:41;95526.22;;;9.13;92.41
61408;BME280;47274;43.054;25.146;2023-05-01T02:08:10;95527.03;;;9.04;93.73
61408;BME280;47274;43.054;25.146;2023-05-01T02:10:37;95533.22;;;8.91;95.38
61408;BME280;47274;43.054;25.146;2023-05-01T02:13:05;95528.63;;;8.95;97.84
61408;BME280;47274;43.054;25.146;2023-05-01T02:15:33;95527.69;;;9.06;95.83
61408;BME280;47274;43.054;25.146;2023-05-01T02:18:03;95533.06;;;9.12;95.55
61408;BME280;47274;43.054;25.146;2023-05-01T02:20:30;95525.41;;;9.02;96.73
61408;BME280;47274;43.054;25.146;2023-05-01T02:22:58;95531.34;;;9.03;96.73
61408;BME280;47274;43.054;25.146;2023-05-01T02:25:26;95532.41;;;8.91;98.40
61408;BME280;47274;43.054;25.146;2023-05-01T02:27:57;95541.16;;;8.88;100.00
61408;BME280;47274;43.054;25.146;2023-05-01T02:30:24;95546.69;;;8.93;99.09
61408;BME280;47274;43.054;25.146;2023-05-01T02:32:50;95552.34;;;8.97;98.39
61408;BME280;47274;43.054;25.146;2023-05-01T02:35:16;95546.97;;;9.00;97.74
61408;BME280;47274;43.054;25.146;2023-05-01T02:37:43;95527.44;;;8.89;97.07
61408;BME280;47274;43.054;25.146;2023-05-01T02:40:11;95547.22;;;9.07;97.54
61408;BME280;47274;43.054;25.146;2023-05-01T02:42:38;95552.72;;;9.12;98.22
61408;BME280;47274;43.054;25.146;2023-05-01T02:45:06;95553.97;;;9.08;98.17
61408;BME280;47274;43.054;25.146;2023-05-01T02:47:37;95537.41;;;8.92;98.60
61408;BME280;47274;43.054;25.146;2023-05-01T02:50:05;95556.25;;;9.01;99.44
61408;BME280;47274;43.054;25.146;2023-05-01T02:52:34;95556.25;;;8.91;100.00
61408;BME280;47274;43.054;25.146;2023-05-01T02:55:21;95520.97;;;8.66;100.00
61408;BME280;47274;43.054;25.146;2023-05-01T02:57:49;95536.72;;;8.71;100.00
61408;BME280;47274;43.054;25.146;2023-05-01T03:00:15;95566.22;;;8.85;99.77
61408;BME280;47274;43.054;25.146;2023-05-01T03:02:41;95536.44;;;8.64;99.84
61408;BME280;47274;43.054;25.146;2023-05-01T03:05:07;95560.97;;;8.76;100.00
61408;BME280;47274;43.054;25.146;2023-05-01T03:07:33;95550.88;;;8.65;100.00
61408;BME280;47274;43.054;25.146;2023-05-01T03:10:04;95563.94;;;8.72;100.00
61408;BME280;47274;43.054;25.146;2023-05-01T03:12:30;95551.78;;;8.64;100.00
61408;BME280;47274;43.054;25.146;2023-05-01T03:14:56;95552.47;;;8.57;100.00
61408;BME280;47274;43.054;25.146;2023-05-01T03:17:22;95560.28;;;8.55;100.00
61408;BME280;47274;43.054;25.146;2023-05-01T03:19:47;95549.66;;;8.60;100.00
61408;BME280;47274;43.054;25.146;2023-05-01T03:22:14;95544.78;;;8.47;100.00
61408;BME280;47274;43.054;25.146;2023-05-01T03:24:40;95538.56;;;8.40;100.00
61408;BME280;47274;43.054;25.146;2023-05-01T03:27:06;95561.19;;;8.44;100.00
61408;BME280;47274;43.054;25.146;2023-05-01T03:29:33;95544.72;;;8.27;100.00
61408;BME280;47274;43.054;25.146;2023-05-01T03:31:59;95561.78;;;8.27;100.00
61408;BME280;47274;43.054;25.146;2023-05-01T03:34:25;95553.00;;;8.10;100.00
61408;BME280;47274;43.054;25.146;2023-05-01T03:36:53;95569.56;;;8.16;100.00
61408;BME280;47274;43.054;25.146;2023-05-01T03:39:20;95585.09;;;8.24;100.00
61408;BME280;47274;43.054;25.146;2023-05-01T03:42:18;95527.97;;;7.94;100.00
61408;BME280;47274;43.054;25.146;2023-05-01T03:44:44;95584.97;;;8.35;100.00
61408;BME280;47274;43.054;25.146;2023-05-01T03:47:11;95590.81;;;8.47;100.00
61408;BME280;47274;43.054;25.146;2023-05-01T03:49:40;95594.88;;;8.59;100.00
61408;BME280;47274;43.054;25.146;2023-05-01T03:52:09;95604.34;;;8.68;100.00
61408;BME280;47274;43.054;25.146;2023-05-01T03:54:36;95595.44;;;8.72;100.00
61408;BME280;47274;43.054;25.146;2023-05-01T03:57:19;95587.50;;;8.75;100.00
61408;BME280;47274;43.054;25.146;2023-05-01T03:59:46;95606.22;;;8.95;100.00
61408;BME280;47274;43.054;25.146;2023-05-01T04:02:12;95604.59;;;8.94;100.00
61408;BME280;47274;43.054;25.146;2023-05-01T04:04:38;95584.66;;;8.88;100.00
61408;BME280;47274;43.054;25.146;2023-05-01T04:07:04;95597.09;;;9.02;100.00
61408;BME280;47274;43.054;25.146;2023-05-01T04:09:30;95592.63;;;9.05;100.00
61408;BME280;47274;43.054;25.146;2023-05-01T04:11:57;95619.41;;;9.30;100.00
61408;BME280;47274;43.054;25.146;2023-05-01T04:14:23;95612.97;;;9.25;99.37
61408;BME280;47274;43.054;25.146;2023-05-01T04:16:49;95632.75;;;9.43;99.05
61408;BME280;47274;43.054;25.146;2023-05-01T04:19:16;95618.06;;;9.35;98.50
61408;BME280;47274;43.054;25.146;2023-05-01T04:21:45;95630.88;;;9.45;98.39
61408;BME280;47274;43.054;25.146;2023-05-01T04:24:11;95628.84;;;9.39;98.77
61408;BME280;47274;43.054;25.146;2023-05-01T04:26:37;95607.72;;;9.27;99.08
61408;BME280;47274;43.054;25.146;2023-05-01T04:29:04;95640.59;;;9.41;100.00
61408;BME280;47274;43.054;25.146;2023-05-01T04:31:29;95636.41;;;9.40;100.00
61408;BME280;47274;43.054;25.146;2023-05-01T04:33:55;95639.91;;;9.49;100.00
61408;BME280;47274;43.054;25.146;2023-05-01T04:36:21;95627.50;;;9.44;99.05
61408;BME280;47274;43.054;25.146;2023-05-01T04:38:48;95632.88;;;9.61;99.32
61408;BME280;47274;43.054;25.146;2023-05-01T04:41:14;95623.97;;;9.75;97.96
61408;BME280;47274;43.054;25.146;2023-05-01T04:43:40;95648.00;;;10.11;96.44
61408;BME280;47274;43.054;25.146;2023-05-01T04:46:06;95629.19;;;10.30;95.21
61408;BME280;47274;43.054;25.146;2023-05-01T04:48:32;95656.88;;;10.63;95.03
61408;BME280;47274;43.054;25.146;2023-05-01T04:50:58;95658.22;;;10.85;92.38
61408;BME280;47274;43.054;25.146;2023-05-01T04:53:28;95652.81;;;11.06;93.24
61408;BME280;47274;43.054;25.146;2023-05-01T04:55:54;95641.50;;;11.17;88.12
61408;BME280;47274;43.054;25.146;2023-05-01T04:58:19;95637.50;;;11.14;89.10
61408;BME280;47274;43.054;25.146;2023-05-01T05:00:49;95656.41;;;11.49;87.07
61408;BME280;47274;43.054;25.146;2023-05-01T05:03:19;95640.81;;;11.87;86.53
61408;BME280;47274;43.054;25.146;2023-05-01T05:05:45;95653.69;;;11.95;85.36
61408;BME280;47274;43.054;25.146;2023-05-01T05:08:11;95655.63;;;12.27;85.11
61408;BME280;47274;43.054;25.146;2023-05-01T05:10:45;95640.81;;;12.55;82.46
61408;BME280;47274;43.054;25.146;2023-05-01T05:13:26;95648.19;;;12.16;82.49
61408;BME280;47274;43.054;25.146;2023-05-01T05:15:57;95648.84;;;12.18;83.32
61408;BME280;47274;43.054;25.146;2023-05-01T05:18:24;95681.72;;;12.32;82.34
61408;BME280;47274;43.054;25.146;2023-05-01T05:20:50;95680.88;;;11.97;82.80
61408;BME280;47274;43.054;25.146;2023-05-01T05:23:16;95670.63;;;11.61;84.44
61408;BME280;47274;43.054;25.146;2023-05-01T05:25:43;95681.69;;;11.62;87.73
61408;BME280;47274;43.054;25.146;2023-05-01T05:28:08;95672.16;;;11.54;88.42
61408;BME280;47274;43.054;25.146;2023-05-01T05:30:34;95626.59;;;11.03;87.42
61408;BME280;47274;43.054;25.146;2023-05-01T05:33:03;95684.28;;;11.44;85.91
61408;BME280;47274;43.054;25.146;2023-05-01T05:35:29;95699.63;;;11.90;85.39
61408;BME280;47274;43.054;25.146;2023-05-01T05:37:55;95680.50;;;11.92;84.28
61408;BME280;47274;43.054;25.146;2023-05-01T05:40:23;95688.06;;;12.46;80.11
61408;BME280;47274;43.054;25.146;2023-05-01T05:42:54;95689.88;;;12.96;78.65
61408;BME280;47274;43.054;25.146;2023-05-01T05:45:21;95690.81;;;13.37;77.07
61408;BME280;47274;43.054;25.146;2023-05-01T05:47:48;95693.06;;;13.73;76.38
61408;BME280;47274;43.054;25.146;2023-05-01T05:50:13;95699.69;;;13.92;74.29
61408;BME280;47274;43.054;25.146;2023-05-01T05:52:41;95700.47;;;14.01;75.09
61408;BME280;47274;43.054;25.146;2023-05-01T05:55:07;95718.84;;;14.06;74.43
61408;BME280;47274;43.054;25.146;2023-05-01T05:57:34;95697.59;;;13.95;75.22
61408;BME280;47274;43.054;25.146;2023-05-01T06:00:04;95710.16;;;13.66;75.27
61408;BME280;47274;43.054;25.146;2023-05-01T06:02:37;95713.53;;;14.15;74.10
61408;BME280;47274;43.054;25.146;2023-05-01T06:05:05;95707.31;;;14.49;73.98
61408;BME280;47274;43.054;25.146;2023-05-01T06:07:31;95716.84;;;14.57;73.33
61408;BME280;47274;43.054;25.146;2023-05-01T06:09:57;95732.50;;;15.03;71.23
61408;BME280;47274;43.054;25.146;2023-05-01T06:12:29;95718.19;;;15.23;70.49
61408;BME280;47274;43.054;25.146;2023-05-01T06:14:57;95732.06;;;15.53;69.70
61408;BME280;47274;43.054;25.146;2023-05-01T06:17:24;95736.28;;;15.77;68.77
61408;BME280;47274;43.054;25.146;2023-05-01T06:19:50;95736.88;;;15.87;67.43
61408;BME280;47274;43.054;25.146;2023-05-01T06:22:17;95713.16;;;15.76;66.98
61408;BME280;47274;43.054;25.146;2023-05-01T06:24:57;95738.44;;;16.11;69.37
61408;BME280;47274;43.054;25.146;2023-05-01T06:27:25;95736.44;;;16.37;68.38
61408;BME280;47274;43.054;25.146;2023-05-01T06:29:51;95733.13;;;16.57;66.38
61408;BME280;47274;43.054;25.146;2023-05-01T06:32:17;95721.91;;;16.65;65.41
61408;BME280;47274;43.054;25.146;2023-05-01T06:34:44;95735.13;;;16.85;65.73
61408;BME280;47274;43.054;25.146;2023-05-01T06:37:09;95741.28;;;16.99;64.96
61408;BME280;47274;43.054;25.146;2023-05-01T06:39:35;95743.66;;;16.79;65.16
61408;BME280;47274;43.054;25.146;2023-05-01T06:42:01;95756.75;;;16.77;65.67
61408;BME280;47274;43.054;25.146;2023-05-01T06:44:37;95758.81;;;16.97;65.36
61408;BME280;47274;43.054;25.146;2023-05-01T06:47:03;95755.34;;;16.90;67.62
61408;BME280;47274;43.054;25.146;2023-05-01T06:49:29;95766.81;;;17.32;65.43
61408;BME280;47274;43.054;25.146;2023-05-01T06:51:54;95763.16;;;17.26;64.84
61408;BME280;47274;43.054;25.146;2023-05-01T06:54:20;95769.44;;;17.53;64.37
61408;BME280;47274;43.054;25.146;2023-05-01T06:56:47;95758.47;;;17.72;62.57
61408;BME280;47274;43.054;25.146;2023-05-01T06:59:12;95752.22;;;17.82;62.89
61408;BME280;47274;43.054;25.146;2023-05-01T07:01:38;95774.88;;;18.16;59.82
61408;BME280;47274;43.054;25.146;2023-05-01T07:04:04;95760.75;;;18.25;60.87
61408;BME280;47274;43.054;25.146;2023-05-01T07:06:29;95775.53;;;18.53;59.79
61408;BME280;47274;43.054;25.146;2023-05-01T07:08:56;95782.38;;;18.32;58.96
61408;BME280;47274;43.054;25.146;2023-05-01T07:11:22;95777.03;;;17.91;59.53
61408;BME280;47274;43.054;25.146;2023-05-01T07:13:48;95774.63;;;18.11;59.17
61408;BME280;47274;43.054;25.146;2023-05-01T07:16:14;95793.41;;;18.62;58.92
61408;BME280;47274;43.054;25.146;2023-05-01T07:18:39;95793.91;;;18.73;57.05
61408;BME280;47274;43.054;25.146;2023-05-01T07:21:05;95801.22;;;18.90;58.49
61408;BME280;47274;43.054;25.146;2023-05-01T07:23:34;95798.38;;;19.20;60.14
61408;BME280;47274;43.054;25.146;2023-05-01T07:26:00;95791.63;;;19.32;55.59
61408;BME280;47274;43.054;25.146;2023-05-01T07:28:26;95804.50;;;19.47;57.86
61408;BME280;47274;43.054;25.146;2023-05-01T07:30:51;95804.41;;;19.69;55.69
61408;BME280;47274;43.054;25.146;2023-05-01T07:33:17;95799.19;;;19.69;56.73
61408;BME280;47274;43.054;25.146;2023-05-01T07:35:43;95808.25;;;19.93;56.02
61408;BME280;47274;43.054;25.146;2023-05-01T07:38:08;95813.88;;;19.83;54.27
61408;BME280;47274;43.054;25.146;2023-05-01T07:40:34;95804.63;;;19.74;51.31
61408;BME280;47274;43.054;25.146;2023-05-01T07:43:01;95794.56;;;19.64;51.65
61408;BME280;47274;43.054;25.146;2023-05-01T07:45:27;95807.81;;;19.76;54.32
61408;BME280;47274;43.054;25.146;2023-05-01T07:47:52;95795.19;;;19.66;54.39
61408;BME280;47274;43.054;25.146;2023-05-01T07:50:18;95800.69;;;20.04;55.80
61408;BME280;47274;43.054;25.146;2023-05-01T07:52:44;95805.94;;;20.38;52.52
61408;BME280;47274;43.054;25.146;2023-05-01T07:55:10;95793.47;;;20.46;55.36
61408;BME280;47274;43.054;25.146;2023-05-01T07:57:36;95811.94;;;19.57;55.41
61408;BME280;47274;43.054;25.146;2023-05-01T08:00:03;95810.31;;;20.04;54.77
61408;BME280;47274;43.054;25.146;2023-05-01T08:02:38;95803.31;;;20.38;52.11
61408;BME280;47274;43.054;25.146;2023-05-01T08:05:05;95804.72;;;20.67;52.14
61408;BME280;47274;43.054;25.146;2023-05-01T08:07:31;95795.47;;;20.84;49.61
61408;BME280;47274;43.054;25.146;2023-05-01T08:09:57;95810.25;;;21.17;52.27
61408;BME280;47274;43.054;25.146;2023-05-01T08:12:25;95811.88;;;21.11;49.71
61408;BME280;47274;43.054;25.146;2023-05-01T08:14:51;95806.31;;;20.81;51.25
61408;BME280;47274;43.054;25.146;2023-05-01T08:17:17;95811.13;;;20.24;50.97
61408;BME280;47274;43.054;25.146;2023-05-01T08:19:43;95802.88;;;19.39;54.36
61408;BME280;47274;43.054;25.146;2023-05-01T08:22:10;95812.03;;;18.87;54.68
61408;BME280;47274;43.054;25.146;2023-05-01T08:24:37;95809.47;;;18.44;57.75
61408;BME280;47274;43.054;25.146;2023-05-01T08:27:04;95806.84;;;18.16;57.42
61408;BME280;47274;43.054;25.146;2023-05-01T08:29:29;95816.47;;;17.80;57.83
61408;BME280;47274;43.054;25.146;2023-05-01T08:31:57;95811.75;;;17.68;58.28
61408;BME280;47274;43.054;25.146;2023-05-01T08:34:23;95816.09;;;18.47;57.58
61408;BME280;47274;43.054;25.146;2023-05-01T08:36:49;95818.69;;;19.45;56.22
61408;BME280;47274;43.054;25.146;2023-05-01T08:39:15;95785.97;;;19.15;54.65
61408;BME280;47274;43.054;25.146;2023-05-01T08:41:45;95815.53;;;20.30;53.10
61408;BME280;47274;43.054;25.146;2023-05-01T08:44:13;95809.09;;;20.99;51.18
61408;BME280;47274;43.054;25.146;2023-05-01T08:49:15;95814.97;;;21.91;47.92
61408;BME280;47274;43.054;25.146;2023-05-01T08:51:44;95811.13;;;22.32;50.58
61408;BME280;47274;43.054;25.146;2023-05-01T08:54:13;95805.34;;;23.17;47.43
61408;BME280;47274;43.054;25.146;2023-05-01T08:56:41;95819.28;;;23.11;47.82
61408;BME280;47274;43.054;25.146;2023-05-01T08:59:08;95821.72;;;22.94;48.19
61408;BME280;47274;43.054;25.146;2023-05-01T09:01:36;95819.16;;;23.06;48.11
61408;BME280;47274;43.054;25.146;2023-05-01T09:04:03;95820.44;;;22.21;49.26
61408;BME280;47274;43.054;25.146;2023-05-01T09:06:31;95804.31;;;20.83;51.34
61408;BME280;47274;43.054;25.146;2023-05-01T09:08:58;95820.78;;;20.57;53.45
61408;BME280;47274;43.054;25.146;2023-05-01T09:11:24;95809.91;;;20.00;55.36
61408;BME280;47274;43.054;25.146;2023-05-01T09:13:51;95820.63;;;19.71;55.48
61408;BME280;47274;43.054;25.146;2023-05-01T09:16:18;95823.34;;;19.08;57.71
61408;BME280;47274;43.054;25.146;2023-05-01T09:18:44;95805.59;;;18.62;60.56
61408;BME280;47274;43.054;25.146;2023-05-01T09:21:11;95815.03;;;18.13;59.59
61408;BME280;47274;43.054;25.146;2023-05-01T09:23:36;95816.44;;;17.58;60.44
61408;BME280;47274;43.054;25.146;2023-05-01T09:26:06;95831.06;;;17.66;64.12
61408;BME280;47274;43.054;25.146;2023-05-01T09:28:43;95815.28;;;17.46;64.09
61408;BME280;47274;43.054;25.146;2023-05-01T09:31:22;95841.94;;;17.55;62.45
61408;BME280;47274;43.054;25.146;2023-05-01T09:33:57;95836.03;;;17.46;62.37
61408;BME280;47274;43.054;25.146;2023-05-01T09:36:24;95833.09;;;17.34;61.35
61408;BME280;47274;43.054;25.146;2023-05-01T09:38:51;95814.16;;;16.89;61.74
61408;BME280;47274;43.054;25.146;2023-05-01T09:41:17;95810.38;;;16.77;62.36
61408;BME280;47274;43.054;25.146;2023-05-01T09:43:53;95840.00;;;16.97;62.87
61408;BME280;47274;43.054;25.146;2023-05-01T09:46:20;95840.97;;;16.96;63.11
61408;BME280;47274;43.054;25.146;2023-05-01T09:48:57;95824.59;;;16.81;63.77
61408;BME280;47274;43.054;25.146;2023-05-01T09:51:28;95833.06;;;16.75;61.66
61408;BME280;47274;43.054;25.146;2023-05-01T09:54:02;95839.66;;;16.63;61.78
61408;BME280;47274;43.054;25.146;2023-05-01T09:56:30;95827.16;;;16.28;65.13
61408;BME280;47274;43.054;25.146;2023-05-01T09:59:13;95803.44;;;16.17;65.38
61408;BME280;47274;43.054;25.146;2023-05-01T10:01:41;95826.56;;;16.41;65.09
61408;BME280;47274;43.054;25.146;2023-05-01T10:04:08;95830.91;;;16.64;62.24
61408;BME280;47274;43.054;25.146;2023-05-01T10:06:35;95821.22;;;16.80;62.38
61408;BME280;47274;43.054;25.146;2023-05-01T10:09:02;95830.59;;;18.13;58.75
61408;BME280;47274;43.054;25.146;2023-05-01T10:11:28;95822.34;;;19.09;56.16
61408;BME280;47274;43.054;25.146;2023-05-01T10:14:20;95834.75;;;20.23;50.73
61408;BME280;47274;43.054;25.146;2023-05-01T10:16:48;95823.53;;;21.02;49.96
61408;BME280;47274;43.054;25.146;2023-05-01T10:19:17;95819.91;;;21.16;49.86
61408;BME280;47274;43.054;25.146;2023-05-01T10:21:43;95812.50;;;21.71;47.94
61408;BME280;47274;43.054;25.146;2023-05-01T10:24:09;95826.66;;;21.44;44.82
61408;BME280;47274;43.054;25.146;2023-05-01T10:26:36;95825.16;;;20.90;49.19
61408;BME280;47274;43.054;25.146;2023-05-01T10:29:02;95789.50;;;20.50;50.21
61408;BME280;47274;43.054;25.146;2023-05-01T10:31:28;95802.47;;;21.03;48.71
61408;BME280;47274;43.054;25.146;2023-05-01T10:33:57;95804.16;;;20.51;51.35
61408;BME280;47274;43.054;25.146;2023-05-01T10:36:33;95813.84;;;19.89;47.79
61408;BME280;47274;43.054;25.146;2023-05-01T10:39:02;95811.50;;;20.88;49.27
61408;BME280;47274;43.054;25.146;2023-05-01T10:41:59;95816.03;;;21.84;47.00
61408;BME280;47274;43.054;25.146;2023-05-01T10:44:26;95799.19;;;22.43;44.52
61408;BME280;47274;43.054;25.146;2023-05-01T10:46:53;95811.94;;;22.33;40.75
61408;BME280;47274;43.054;25.146;2023-05-01T10:49:19;95811.03;;;21.82;42.47
61408;BME280;47274;43.054;25.146;2023-05-01T10:54:25;95794.47;;;20.12;46.85
61408;BME280;47274;43.054;25.146;2023-05-01T10:56:52;95783.59;;;19.75;47.86
61408;BME280;47274;43.054;25.146;2023-05-01T10:59:19;95792.50;;;19.46;46.39
61408;BME280;47274;43.054;25.146;2023-05-01T11:01:46;95797.81;;;19.31;47.83
61408;BME280;47274;43.054;25.146;2023-05-01T11:09:37;95804.09;;;20.05;45.34
61408;BME280;47274;43.054;25.146;2023-05-01T11:12:04;95809.22;;;19.72;46.28
61408;BME280;47274;43.054;25.146;2023-05-01T11:23:00;95811.16;;;21.49;43.23
61408;BME280;47274;43.054;25.146;2023-05-01T11:25:28;95813.34;;;20.80;42.35
61408;BME280;47274;43.054;25.146;2023-05-01T11:28:02;95810.50;;;20.22;44.71
61408;BME280;47274;43.054;25.146;2023-05-01T11:30:37;95794.38;;;19.72;44.91
61408;BME280;47274;43.054;25.146;2023-05-01T11:33:04;95798.22;;;19.70;44.89
61408;BME280;47274;43.054;25.146;2023-05-01T11:35:30;95795.22;;;19.93;45.62
61408;BME280;47274;43.054;25.146;2023-05-01T11:37:57;95809.56;;;19.14;44.57
61408;BME280;47274;43.054;25.146;2023-05-01T11:40:31;95805.03;;;18.88;44.29
61408;BME280;47274;43.054;25.146;2023-05-01T11:43:06;95809.03;;;19.25;47.51
61408;BME280;47274;43.054;25.146;2023-05-01T11:45:35;95814.31;;;19.04;45.37
61408;BME280;47274;43.054;25.146;2023-05-01T11:48:02;95792.56;;;18.83;46.27
61408;BME280;47274;43.054;25.146;2023-05-01T11:50:32;95784.31;;;19.49;43.58
61408;BME280;47274;43.054;25.146;2023-05-01T11:53:00;95790.84;;;19.86;42.42
61408;BME280;47274;43.054;25.146;2023-05-01T11:55:33;95795.31;;;20.59;42.34
61408;BME280;47274;43.054;25.146;2023-05-01T11:58:00;95798.66;;;20.99;41.56
61408;BME280;47274;43.054;25.146;2023-05-01T12:00:34;95759.00;;;20.57;38.83
61408;BME280;47274;43.054;25.146;2023-05-01T12:05:30;95778.47;;;21.85;40.67
61408;BME280;47274;43.054;25.146;2023-05-01T12:08:16;95785.66;;;20.86;39.01
61408;BME280;47274;43.054;25.146;2023-05-01T12:10:55;95797.50;;;19.54;39.70
61408;BME280;47274;43.054;25.146;2023-05-01T12:13:22;95789.91;;;19.05;41.56
61408;BME280;47274;43.054;25.146;2023-05-01T12:15:50;95792.94;;;19.56;40.86
61408;BME280;47274;43.054;25.146;2023-05-01T12:18:17;95770.03;;;20.40;42.00
61408;BME280;47274;43.054;25.146;2023-05-01T12:20:45;95790.59;;;21.08;41.23
61408;BME280;47274;43.054;25.146;2023-05-01T12:23:32;95788.09;;;21.39;40.83
61408;BME280;47274;43.054;25.146;2023-05-01T12:25:59;95760.78;;;20.44;38.43
61408;BME280;47274;43.054;25.146;2023-05-01T12:28:25;95779.06;;;20.57;39.30
61408;BME280;47274;43.054;25.146;2023-05-01T12:30:52;95776.22;;;20.78;37.91
61408;BME280;47274;43.054;25.146;2023-05-01T12:33:20;95778.44;;;20.35;37.26
61408;BME280;47274;43.054;25.146;2023-05-01T12:35:48;95781.84;;;20.82;39.43
61408;BME280;47274;43.054;25.146;2023-05-01T12:38:19;95762.97;;;20.80;39.17
61408;BME280;47274;43.054;25.146;2023-05-01T12:40:56;95788.47;;;20.58;37.79
61408;BME280;47274;43.054;25.146;2023-05-01T12:43:33;95788.88;;;20.35;36.01
61408;BME280;47274;43.054;25.146;2023-05-01T12:46:00;95795.31;;;20.52;36.12
61408;BME280;47274;43.054;25.146;2023-05-01T12:48:26;95765.41;;;20.68;37.30
61408;BME280;47274;43.054;25.146;2023-05-01T12:50:52;95789.69;;;20.55;37.50
61408;BME280;47274;43.054;25.146;2023-05-01T12:53:23;95789.47;;;20.24;37.66
61408;BME280;47274;43.054;25.146;2023-05-01T12:55:52;95798.91;;;20.25;36.28
61408;BME280;47274;43.054;25.146;2023-05-01T12:58:19;95790.28;;;20.51;36.53
61408;BME280;47274;43.054;25.146;2023-05-01T13:00:52;95789.69;;;20.55;36.23
61408;BME280;47274;43.054;25.146;2023-05-01T13:03:24;95770.66;;;20.55;34.77
61408;BME280;47274;43.054;25.146;2023-05-01T13:05:52;95771.44;;;20.49;36.59
61408;BME280;47274;43.054;25.146;2023-05-01T13:10:54;95776.03;;;20.33;36.33
61408;BME280;47274;43.054;25.146;2023-05-01T13:13:32;95761.00;;;20.22;34.69
61408;BME280;47274;43.054;25.146;2023-05-01T13:16:12;95779.28;;;20.55;35.51
61408;BME280;47274;43.054;25.146;2023-05-01T13:18:51;95782.88;;;20.54;33.58
61408;BME280;47274;43.054;25.146;2023-05-01T13:21:21;95784.28;;;20.57;35.11
61408;BME280;47274;43.054;25.146;2023-05-01T13:23:52;95781.59;;;20.97;34.92
61408;BME280;47274;43.054;25.146;2023-05-01T13:26:27;95765.75;;;20.85;33.41
61408;BME280;47274;43.054;25.146;2023-05-01T13:28:55;95782.81;;;20.94;34.74
61408;BME280;47274;43.054;25.146;2023-05-01T13:31:22;95743.16;;;20.59;35.18
61408;BME280;47274;43.054;25.146;2023-05-01T13:33:52;95780.84;;;20.83;34.47
61408;BME280;47274;43.054;25.146;2023-05-01T13:36:19;95774.63;;;20.64;35.19
61408;BME280;47274;43.054;25.146;2023-05-01T13:38:50;95766.59;;;20.79;33.13
61408;BME280;47274;43.054;25.146;2023-05-01T13:41:24;95749.56;;;20.70;34.19